createdAt,value
2016-12-07T00:00:19.971Z,0
2016-12-07T00:01:20.656Z,0
2016-12-07T00:02:21.414Z,0
2016-12-07T00:03:22.090Z,0
2016-12-07T00:04:22.782Z,0
2016-12-07T00:05:23.495Z,0
2016-12-07T00:06:24.164Z,0
2016-12-07T00:07:24.857Z,0
2016-12-07T00:08:25.488Z,0
2016-12-07T00:09:26.130Z,0
2016-12-07T00:10:26.760Z,0
2016-12-07T00:11:27.453Z,0
2016-12-07T00:12:28.108Z,0
2016-12-07T00:13:28.778Z,0
2016-12-07T00:14:29.477Z,0
2016-12-07T00:15:30.116Z,0
2016-12-07T00:16:30.812Z,0
2016-12-07T00:17:31.390Z,0
2016-12-07T00:18:32.107Z,0
2016-12-07T00:19:32.729Z,0
2016-12-07T00:20:33.411Z,0
2016-12-07T00:21:34.772Z,0
2016-12-07T00:22:35.450Z,0
2016-12-07T00:23:36.106Z,0
2016-12-07T00:24:36.862Z,0
2016-12-07T00:25:37.525Z,0
2016-12-07T00:26:38.247Z,0
2016-12-07T00:27:38.941Z,0
2016-12-07T00:28:39.570Z,0
2016-12-07T00:29:40.276Z,0
2016-12-07T00:30:40.989Z,0
2016-12-07T00:31:41.597Z,0
2016-12-07T00:32:42.293Z,0
2016-12-07T00:33:42.914Z,0
2016-12-07T00:34:43.564Z,0
2016-12-07T00:35:44.226Z,0
2016-12-07T00:36:44.871Z,0
2016-12-07T00:37:45.514Z,0
2016-12-07T00:38:46.181Z,0
2016-12-07T00:39:46.804Z,0
2016-12-07T00:40:47.540Z,0
2016-12-07T00:41:48.176Z,0
2016-12-07T00:42:48.829Z,0
2016-12-07T00:43:49.482Z,0
2016-12-07T00:44:50.127Z,0
2016-12-07T00:45:50.824Z,0
2016-12-07T00:46:51.421Z,0
2016-12-07T00:47:52.051Z,0
2016-12-07T00:48:52.737Z,0
2016-12-07T00:49:53.388Z,0
2016-12-07T00:50:54.028Z,0
2016-12-07T00:51:54.744Z,0
2016-12-07T00:52:55.343Z,0
2016-12-07T00:53:56.011Z,0
2016-12-07T00:54:56.617Z,0
2016-12-07T00:55:57.317Z,0
2016-12-07T00:56:57.933Z,0
2016-12-07T00:57:58.568Z,0
2016-12-07T00:58:59.265Z,0
2016-12-07T00:59:59.876Z,0
2016-12-07T01:01:00.522Z,0
2016-12-07T01:02:01.252Z,0
2016-12-07T01:03:01.984Z,0
2016-12-07T01:04:02.614Z,0
2016-12-07T01:05:03.296Z,0
2016-12-07T01:06:03.996Z,0
2016-12-07T01:07:04.627Z,0
2016-12-07T01:08:05.306Z,0
2016-12-07T01:09:05.949Z,0
2016-12-07T01:10:06.592Z,0
2016-12-07T01:11:07.240Z,0
2016-12-07T01:12:07.928Z,0
2016-12-07T01:13:08.617Z,0
2016-12-07T01:14:09.245Z,0
2016-12-07T01:15:09.897Z,0
2016-12-07T01:16:10.548Z,0
2016-12-07T01:17:11.277Z,0
2016-12-07T01:18:11.911Z,0
2016-12-07T01:19:12.588Z,0
2016-12-07T01:20:13.272Z,0
2016-12-07T01:21:13.888Z,0
2016-12-07T01:22:14.564Z,0
2016-12-07T01:23:15.476Z,0
2016-12-07T01:24:16.019Z,0
2016-12-07T01:25:16.665Z,0
2016-12-07T01:26:17.309Z,0
2016-12-07T01:27:17.941Z,0
2016-12-07T01:28:18.628Z,0
2016-12-07T01:29:19.274Z,0
2016-12-07T01:30:19.936Z,0
2016-12-07T01:31:20.581Z,0
2016-12-07T01:32:21.366Z,0
2016-12-07T01:33:21.945Z,0
2016-12-07T01:34:22.646Z,0
2016-12-07T01:35:23.244Z,0
2016-12-07T01:36:23.951Z,0
2016-12-07T01:37:24.567Z,0
2016-12-07T01:38:25.256Z,0
2016-12-07T01:39:26.040Z,0
2016-12-07T01:40:26.690Z,0
2016-12-07T01:41:27.404Z,0
2016-12-07T01:42:28.292Z,0
2016-12-07T01:43:29.080Z,0
2016-12-07T01:44:29.595Z,0
2016-12-07T01:45:30.245Z,0
2016-12-07T01:46:30.885Z,0
2016-12-07T01:47:31.535Z,0
2016-12-07T01:48:32.199Z,0
2016-12-07T01:49:33.016Z,0
2016-12-07T01:50:33.826Z,0
2016-12-07T01:51:34.485Z,0
2016-12-07T01:52:35.271Z,0
2016-12-07T01:53:35.938Z,0
2016-12-07T01:54:36.609Z,0
2016-12-07T01:55:37.239Z,0
2016-12-07T01:56:38.068Z,0
2016-12-07T01:57:38.752Z,0
2016-12-07T01:58:39.400Z,0
2016-12-07T01:59:40.077Z,0
2016-12-07T02:00:40.813Z,0
2016-12-07T02:01:41.458Z,0
2016-12-07T02:02:42.145Z,0
2016-12-07T02:03:42.803Z,0
2016-12-07T02:04:43.647Z,0
2016-12-07T02:05:44.257Z,0
2016-12-07T02:06:44.917Z,0
2016-12-07T02:07:45.632Z,0
2016-12-07T02:08:46.243Z,0
2016-12-07T02:09:46.875Z,0
2016-12-07T02:10:47.625Z,0
2016-12-07T02:11:48.179Z,0
2016-12-07T02:12:48.852Z,0
2016-12-07T02:13:49.533Z,0
2016-12-07T02:14:50.185Z,0
2016-12-07T02:15:50.873Z,0
2016-12-07T02:16:51.547Z,0
2016-12-07T02:17:52.185Z,0
2016-12-07T02:18:52.860Z,0
2016-12-07T02:19:53.573Z,0
2016-12-07T02:20:54.267Z,0
2016-12-07T02:21:55.217Z,0
2016-12-07T02:22:55.866Z,0
2016-12-07T02:23:56.507Z,0
2016-12-07T02:24:57.143Z,0
2016-12-07T02:25:57.806Z,0
2016-12-07T02:26:58.452Z,0
2016-12-07T02:27:59.133Z,0
2016-12-07T02:28:59.764Z,0
2016-12-07T02:30:00.409Z,0
2016-12-07T02:31:01.036Z,0
2016-12-07T02:32:01.664Z,0
2016-12-07T02:33:02.417Z,0
2016-12-07T02:34:03.064Z,0
2016-12-07T02:35:03.796Z,0
2016-12-07T02:36:04.448Z,0
2016-12-07T02:37:05.122Z,0
2016-12-07T02:38:05.773Z,0
2016-12-07T02:39:06.418Z,0
2016-12-07T02:40:07.077Z,0
2016-12-07T02:41:07.785Z,0
2016-12-07T02:42:08.450Z,0
2016-12-07T02:43:09.103Z,0
2016-12-07T02:44:09.794Z,0
2016-12-07T02:45:10.508Z,0
2016-12-07T02:46:11.098Z,0
2016-12-07T02:47:11.795Z,0
2016-12-07T02:48:12.427Z,0
2016-12-07T02:49:13.138Z,0
2016-12-07T02:50:13.753Z,0
2016-12-07T02:51:14.377Z,0
2016-12-07T02:52:15.042Z,0
2016-12-07T02:53:15.693Z,0
2016-12-07T02:54:16.642Z,0
2016-12-07T02:55:17.390Z,0
2016-12-07T02:56:18.019Z,0
2016-12-07T02:57:18.682Z,0
2016-12-07T02:58:19.389Z,0
2016-12-07T02:59:20.155Z,0
2016-12-07T03:00:20.809Z,0
2016-12-07T03:01:21.507Z,0
2016-12-07T03:02:22.216Z,0
2016-12-07T03:03:22.829Z,0
2016-12-07T03:04:23.527Z,0
2016-12-07T03:05:24.199Z,0
2016-12-07T03:06:24.856Z,0
2016-12-07T03:07:25.519Z,0
2016-12-07T03:08:26.174Z,0
2016-12-07T03:09:26.855Z,0
2016-12-07T03:10:27.525Z,0
2016-12-07T03:11:28.137Z,0
2016-12-07T03:12:28.762Z,0
2016-12-07T03:13:29.381Z,0
2016-12-07T03:14:30.035Z,0
2016-12-07T03:15:30.716Z,0
2016-12-07T03:16:31.540Z,0
2016-12-07T03:17:32.208Z,0
2016-12-07T03:18:32.842Z,0
2016-12-07T03:19:33.505Z,0
2016-12-07T03:20:34.136Z,0
2016-12-07T03:21:34.843Z,0
2016-12-07T03:22:35.562Z,0
2016-12-07T03:23:36.213Z,0
2016-12-07T03:24:36.958Z,0
2016-12-07T03:25:37.589Z,0
2016-12-07T03:26:38.271Z,0
2016-12-07T03:27:38.985Z,0
2016-12-07T03:28:39.607Z,0
2016-12-07T03:29:40.281Z,0
2016-12-07T03:30:40.962Z,0
2016-12-07T03:31:41.614Z,0
2016-12-07T03:32:42.226Z,0
2016-12-07T03:33:42.891Z,0
2016-12-07T03:34:43.541Z,0
2016-12-07T03:35:44.205Z,0
2016-12-07T03:36:44.894Z,0
2016-12-07T03:37:45.511Z,0
2016-12-07T03:38:46.155Z,0
2016-12-07T03:39:46.889Z,0
2016-12-07T03:40:47.485Z,0
2016-12-07T03:41:48.144Z,0
2016-12-07T03:42:48.801Z,0
2016-12-07T03:43:49.449Z,0
2016-12-07T03:44:50.096Z,0
2016-12-07T03:45:50.743Z,0
2016-12-07T03:46:51.415Z,0
2016-12-07T03:47:52.058Z,0
2016-12-07T03:48:52.700Z,0
2016-12-07T03:49:53.336Z,0
2016-12-07T03:50:53.998Z,0
2016-12-07T03:51:54.621Z,0
2016-12-07T03:52:55.272Z,0
2016-12-07T03:53:55.941Z,0
2016-12-07T03:54:56.589Z,0
2016-12-07T03:55:57.225Z,0
2016-12-07T03:56:57.939Z,0
2016-12-07T03:57:58.563Z,0
2016-12-07T03:58:59.265Z,0
2016-12-07T03:59:59.919Z,0
2016-12-07T04:01:00.564Z,0
2016-12-07T04:02:01.242Z,0
2016-12-07T04:03:01.974Z,0
2016-12-07T04:04:02.701Z,0
2016-12-07T04:05:03.290Z,0
2016-12-07T04:06:03.930Z,0
2016-12-07T04:07:04.583Z,0
2016-12-07T04:08:05.233Z,0
2016-12-07T04:09:05.913Z,0
2016-12-07T04:10:06.565Z,0
2016-12-07T04:11:07.205Z,0
2016-12-07T04:12:07.892Z,0
2016-12-07T04:13:08.581Z,0
2016-12-07T04:14:09.166Z,0
2016-12-07T04:15:09.820Z,0
2016-12-07T04:16:10.484Z,0
2016-12-07T04:17:11.202Z,0
2016-12-07T04:18:11.825Z,0
2016-12-07T04:19:12.473Z,0
2016-12-07T04:20:13.145Z,0
2016-12-07T04:21:13.784Z,0
2016-12-07T04:22:14.412Z,0
2016-12-07T04:23:15.082Z,0
2016-12-07T04:24:15.730Z,0
2016-12-07T04:25:16.358Z,0
2016-12-07T04:26:16.988Z,0
2016-12-07T04:27:17.651Z,0
2016-12-07T04:28:18.288Z,0
2016-12-07T04:29:18.948Z,0
2016-12-07T04:30:19.609Z,0
2016-12-07T04:31:20.265Z,0
2016-12-07T04:32:20.907Z,0
2016-12-07T04:33:21.549Z,0
2016-12-07T04:34:22.195Z,0
2016-12-07T04:35:22.825Z,0
2016-12-07T04:36:23.462Z,0
2016-12-07T04:37:24.122Z,0
2016-12-07T04:38:24.785Z,0
2016-12-07T04:39:25.467Z,0
2016-12-07T04:40:26.095Z,0
2016-12-07T04:41:26.711Z,0
2016-12-07T04:42:27.338Z,0
2016-12-07T04:43:27.988Z,0
2016-12-07T04:44:28.632Z,0
2016-12-07T04:45:29.289Z,0
2016-12-07T04:46:29.971Z,0
2016-12-07T04:47:30.650Z,0
2016-12-07T04:48:31.294Z,0
2016-12-07T04:49:31.925Z,0
2016-12-07T04:50:32.555Z,0
2016-12-07T04:51:33.216Z,0
2016-12-07T04:52:33.866Z,0
2016-12-07T04:53:34.506Z,0
2016-12-07T04:54:35.171Z,0
2016-12-07T04:55:35.846Z,0
2016-12-07T04:56:36.539Z,0
2016-12-07T04:57:37.168Z,0
2016-12-07T04:58:37.796Z,0
2016-12-07T04:59:38.424Z,0
2016-12-07T05:00:39.087Z,0
2016-12-07T05:01:39.746Z,0
2016-12-07T05:02:40.395Z,0
2016-12-07T05:03:41.023Z,0
2016-12-07T05:04:41.684Z,0
2016-12-07T05:05:42.306Z,0
2016-12-07T05:06:42.952Z,0
2016-12-07T05:07:43.581Z,0
2016-12-07T05:08:44.195Z,0
2016-12-07T05:09:44.826Z,0
2016-12-07T05:10:45.446Z,0
2016-12-07T05:11:46.111Z,0
2016-12-07T05:12:46.761Z,0
2016-12-07T05:13:47.385Z,0
2016-12-07T05:14:48.033Z,0
2016-12-07T05:15:48.650Z,0
2016-12-07T05:16:49.289Z,0
2016-12-07T05:17:49.926Z,0
2016-12-07T05:18:50.586Z,0
2016-12-07T05:19:51.237Z,0
2016-12-07T05:20:51.862Z,0
2016-12-07T05:21:52.486Z,0
2016-12-07T05:22:53.110Z,0
2016-12-07T05:23:53.755Z,0
2016-12-07T05:24:54.390Z,0
2016-12-07T05:25:55.038Z,0
2016-12-07T05:26:55.715Z,0
2016-12-07T05:27:56.346Z,0
2016-12-07T05:28:56.992Z,0
2016-12-07T05:29:57.635Z,0
2016-12-07T05:30:58.269Z,0
2016-12-07T05:31:58.892Z,0
2016-12-07T05:32:59.551Z,0
2016-12-07T05:34:00.194Z,0
2016-12-07T05:35:00.841Z,0
2016-12-07T05:36:01.473Z,0
2016-12-07T05:37:02.102Z,0
2016-12-07T05:38:02.730Z,0
2016-12-07T05:39:03.365Z,0
2016-12-07T05:40:04.044Z,0
2016-12-07T05:41:04.675Z,0
2016-12-07T05:42:05.287Z,0
2016-12-07T05:43:05.934Z,0
2016-12-07T05:44:06.562Z,0
2016-12-07T05:45:07.200Z,0
2016-12-07T05:46:07.824Z,0
2016-12-07T05:47:08.460Z,0
2016-12-07T05:48:09.141Z,0
2016-12-07T05:49:09.787Z,0
2016-12-07T05:50:10.426Z,0
2016-12-07T05:51:11.071Z,0
2016-12-07T05:52:11.701Z,0
2016-12-07T05:53:12.342Z,0
2016-12-07T05:54:12.984Z,0
2016-12-07T05:55:13.612Z,0
2016-12-07T05:56:14.251Z,0
2016-12-07T05:57:14.882Z,0
2016-12-07T05:58:15.554Z,0
2016-12-07T05:59:16.217Z,0
2016-12-07T06:00:16.861Z,0
2016-12-07T06:01:17.506Z,0
2016-12-07T06:02:18.169Z,0
2016-12-07T06:03:18.808Z,0
2016-12-07T06:04:19.471Z,0
2016-12-07T06:05:20.115Z,0
2016-12-07T06:06:20.740Z,0
2016-12-07T06:07:21.375Z,0
2016-12-07T06:08:22.084Z,0
2016-12-07T06:09:22.694Z,0
2016-12-07T06:10:23.350Z,0
2016-12-07T06:11:23.992Z,0
2016-12-07T06:12:24.639Z,0
2016-12-07T06:13:25.297Z,0
2016-12-07T06:14:25.937Z,0
2016-12-07T06:15:26.596Z,0
2016-12-07T06:16:27.257Z,0
2016-12-07T06:17:27.892Z,0
2016-12-07T06:18:28.598Z,0
2016-12-07T06:19:29.217Z,0
2016-12-07T06:20:29.912Z,0
2016-12-07T06:21:30.673Z,0
2016-12-07T06:22:31.202Z,0
2016-12-07T06:23:31.867Z,0
2016-12-07T06:24:32.518Z,0
2016-12-07T06:25:33.149Z,0
2016-12-07T06:26:33.848Z,0
2016-12-07T06:27:34.450Z,0
2016-12-07T06:28:35.106Z,0
2016-12-07T06:29:35.759Z,0
2016-12-07T06:30:36.390Z,0
2016-12-07T06:31:37.106Z,0
2016-12-07T06:32:37.767Z,0
2016-12-07T06:33:38.417Z,0
2016-12-07T06:34:39.039Z,0
2016-12-07T06:35:39.669Z,0
2016-12-07T06:36:40.329Z,0
2016-12-07T06:37:40.944Z,0
2016-12-07T06:38:41.675Z,0
2016-12-07T06:39:42.374Z,0
2016-12-07T06:40:42.980Z,0
2016-12-07T06:41:43.731Z,0
2016-12-07T06:42:44.409Z,0
2016-12-07T06:43:45.051Z,0
2016-12-07T06:44:45.742Z,0
2016-12-07T06:45:46.375Z,0
2016-12-07T06:46:47.067Z,0
2016-12-07T06:47:47.846Z,0
2016-12-07T06:48:48.529Z,0
2016-12-07T06:49:49.164Z,0
2016-12-07T06:50:49.888Z,0
2016-12-07T06:51:50.613Z,0
2016-12-07T06:52:51.249Z,0
2016-12-07T06:53:51.909Z,0
2016-12-07T06:54:52.579Z,0
2016-12-07T06:55:53.309Z,0
2016-12-07T06:56:54.019Z,0
2016-12-07T06:57:54.669Z,0
2016-12-07T06:58:55.494Z,0
2016-12-07T06:59:56.126Z,0
2016-12-07T07:00:56.818Z,0
2016-12-07T07:01:57.432Z,0
2016-12-07T07:02:58.101Z,0
2016-12-07T07:03:58.763Z,0
2016-12-07T07:04:59.430Z,0
2016-12-07T07:06:00.140Z,0
2016-12-07T07:07:00.828Z,0
2016-12-07T07:08:01.552Z,0
2016-12-07T07:09:02.237Z,0
2016-12-07T07:10:02.910Z,0
2016-12-07T07:11:03.762Z,0
2016-12-07T07:12:04.401Z,0
2016-12-07T07:13:05.061Z,0
2016-12-07T07:14:05.751Z,0
2016-12-07T07:15:06.369Z,0
2016-12-07T07:16:07.032Z,0
2016-12-07T07:17:07.663Z,0
2016-12-07T07:18:08.292Z,0
2016-12-07T07:19:09.107Z,0
2016-12-07T07:20:09.858Z,0
2016-12-07T07:21:10.500Z,0
2016-12-07T07:22:11.133Z,5
2016-12-07T07:23:12.395Z,5
2016-12-07T07:24:13.834Z,5
2016-12-07T07:25:14.467Z,5
2016-12-07T07:26:15.123Z,5
2016-12-07T07:27:16.444Z,5
2016-12-07T07:28:17.124Z,5
2016-12-07T07:29:17.772Z,5
2016-12-07T07:30:18.395Z,5
2016-12-07T07:31:19.023Z,5
2016-12-07T07:32:20.658Z,10
2016-12-07T07:33:21.314Z,10
2016-12-07T07:34:21.948Z,10
2016-12-07T07:35:22.614Z,10
2016-12-07T07:36:23.317Z,10
2016-12-07T07:37:23.955Z,10
2016-12-07T07:38:24.628Z,15
2016-12-07T07:39:25.265Z,15
2016-12-07T07:40:25.910Z,15
2016-12-07T07:41:26.556Z,15
2016-12-07T07:42:27.228Z,15
2016-12-07T07:43:27.923Z,15
2016-12-07T07:44:28.574Z,15
2016-12-07T07:45:29.205Z,15
2016-12-07T07:46:29.889Z,15
2016-12-07T07:47:30.503Z,15
2016-12-07T07:48:31.137Z,15
2016-12-07T07:49:31.777Z,15
2016-12-07T07:50:33.287Z,15
2016-12-07T07:51:33.964Z,15
2016-12-07T07:52:34.685Z,15
2016-12-07T07:53:35.277Z,15
2016-12-07T07:54:35.909Z,20
2016-12-07T07:55:36.579Z,20
2016-12-07T07:56:37.236Z,20
2016-12-07T07:57:37.868Z,20
2016-12-07T07:58:38.491Z,20
2016-12-07T07:59:39.132Z,20
2016-12-07T08:00:39.779Z,25
2016-12-07T08:01:40.415Z,25
2016-12-07T08:02:41.066Z,25
2016-12-07T08:03:41.684Z,25
2016-12-07T08:04:42.297Z,30
2016-12-07T08:05:42.911Z,30
2016-12-07T08:06:43.531Z,35
2016-12-07T08:07:44.151Z,35
2016-12-07T08:08:44.759Z,40
2016-12-07T08:09:45.384Z,40
2016-12-07T08:10:45.993Z,40
2016-12-07T08:11:46.636Z,40
2016-12-07T08:12:47.261Z,40
2016-12-07T08:13:47.892Z,40
2016-12-07T08:14:48.530Z,40
2016-12-07T08:15:49.166Z,40
2016-12-07T08:16:49.804Z,40
2016-12-07T08:17:50.474Z,45
2016-12-07T08:18:51.115Z,45
2016-12-07T08:19:51.759Z,50
2016-12-07T08:20:52.392Z,50
2016-12-07T08:21:53.093Z,55
2016-12-07T08:22:53.767Z,60
2016-12-07T08:23:54.410Z,65
2016-12-07T08:24:55.108Z,65
2016-12-07T08:25:55.765Z,65
2016-12-07T08:26:56.441Z,65
2016-12-07T08:27:57.088Z,70
2016-12-07T08:28:57.740Z,70
2016-12-07T08:29:58.393Z,75
2016-12-07T08:30:59.138Z,70
2016-12-07T08:32:00.389Z,70
2016-12-07T08:33:01.016Z,70
2016-12-07T08:34:01.690Z,70
2016-12-07T08:35:02.368Z,70
2016-12-07T08:36:03.125Z,70
2016-12-07T08:37:03.797Z,70
2016-12-07T08:38:04.451Z,70
2016-12-07T08:39:05.095Z,70
2016-12-07T08:40:05.766Z,70
2016-12-07T08:41:06.443Z,70
2016-12-07T08:42:07.199Z,70
2016-12-07T08:43:07.844Z,75
2016-12-07T08:44:08.503Z,75
2016-12-07T08:45:09.142Z,75
2016-12-07T08:46:09.809Z,70
2016-12-07T08:47:10.522Z,70
2016-12-07T08:48:11.166Z,70
2016-12-07T08:49:11.840Z,70
2016-12-07T08:50:12.575Z,75
2016-12-07T08:51:13.185Z,75
2016-12-07T08:52:13.811Z,80
2016-12-07T08:53:14.458Z,80
2016-12-07T08:54:15.206Z,80
2016-12-07T08:55:15.836Z,80
2016-12-07T08:56:16.464Z,80
2016-12-07T08:57:17.146Z,80
2016-12-07T08:58:17.791Z,75
2016-12-07T08:59:18.461Z,80
2016-12-07T09:00:19.213Z,85
2016-12-07T09:01:19.874Z,85
2016-12-07T09:02:20.543Z,85
2016-12-07T09:03:21.183Z,90
2016-12-07T09:04:21.827Z,90
2016-12-07T09:05:23.006Z,95
2016-12-07T09:06:23.724Z,95
2016-12-07T09:07:24.414Z,95
2016-12-07T09:08:25.090Z,95
2016-12-07T09:09:25.752Z,100
2016-12-07T09:10:26.384Z,100
2016-12-07T09:11:28.008Z,105
2016-12-07T09:12:28.732Z,105
2016-12-07T09:13:29.370Z,110
2016-12-07T09:14:30.019Z,115
2016-12-07T09:15:30.668Z,115
2016-12-07T09:16:31.337Z,115
2016-12-07T09:17:32.045Z,120
2016-12-07T09:18:32.807Z,120
2016-12-07T09:19:34.426Z,125
2016-12-07T09:20:35.158Z,125
2016-12-07T09:21:35.823Z,125
2016-12-07T09:22:36.491Z,125
2016-12-07T09:23:37.210Z,125
2016-12-07T09:24:37.863Z,120
2016-12-07T09:25:38.530Z,115
2016-12-07T09:26:39.807Z,115
2016-12-07T09:27:39.983Z,110
2016-12-07T09:28:40.629Z,110
2016-12-07T09:29:41.266Z,105
2016-12-07T09:30:41.909Z,105
2016-12-07T09:31:42.548Z,100
2016-12-07T09:32:43.188Z,105
2016-12-07T09:33:43.825Z,105
2016-12-07T09:34:44.452Z,105
2016-12-07T09:35:45.072Z,110
2016-12-07T09:36:45.698Z,115
2016-12-07T09:37:46.368Z,120
2016-12-07T09:38:46.976Z,125
2016-12-07T09:39:47.600Z,130
2016-12-07T09:40:48.228Z,140
2016-12-07T09:41:48.860Z,145
2016-12-07T09:42:49.515Z,150
2016-12-07T09:43:50.130Z,155
2016-12-07T09:44:50.777Z,160
2016-12-07T09:45:51.434Z,160
2016-12-07T09:46:52.053Z,160
2016-12-07T09:47:52.699Z,160
2016-12-07T09:48:53.318Z,155
2016-12-07T09:49:54.104Z,150
2016-12-07T09:50:54.790Z,140
2016-12-07T09:51:55.434Z,135
2016-12-07T09:52:56.091Z,130
2016-12-07T09:53:56.752Z,130
2016-12-07T09:54:57.427Z,130
2016-12-07T09:55:58.098Z,130
2016-12-07T09:56:58.783Z,130
2016-12-07T09:57:59.403Z,130
2016-12-07T09:59:00.100Z,130
2016-12-07T10:00:00.741Z,125
2016-12-07T10:01:01.414Z,120
2016-12-07T10:02:02.038Z,120
2016-12-07T10:03:02.654Z,120
2016-12-07T10:04:03.280Z,120
2016-12-07T10:05:03.901Z,125
2016-12-07T10:06:04.518Z,130
2016-12-07T10:07:05.148Z,135
2016-12-07T10:08:05.818Z,140
2016-12-07T10:09:06.446Z,135
2016-12-07T10:10:07.129Z,130
2016-12-07T10:11:07.796Z,120
2016-12-07T10:12:08.454Z,115
2016-12-07T10:13:09.125Z,115
2016-12-07T10:14:09.755Z,125
2016-12-07T10:15:10.411Z,135
2016-12-07T10:16:11.067Z,145
2016-12-07T10:17:11.721Z,160
2016-12-07T10:18:12.475Z,170
2016-12-07T10:19:13.104Z,175
2016-12-07T10:20:13.733Z,175
2016-12-07T10:21:14.364Z,175
2016-12-07T10:22:14.996Z,175
2016-12-07T10:23:15.654Z,180
2016-12-07T10:24:16.274Z,185
2016-12-07T10:25:16.892Z,190
2016-12-07T10:26:17.567Z,195
2016-12-07T10:27:18.368Z,200
2016-12-07T10:28:19.100Z,205
2016-12-07T10:29:19.741Z,210
2016-12-07T10:30:20.412Z,210
2016-12-07T10:31:21.078Z,215
2016-12-07T10:32:21.782Z,220
2016-12-07T10:33:22.414Z,220
2016-12-07T10:34:23.086Z,215
2016-12-07T10:35:23.794Z,210
2016-12-07T10:36:24.502Z,195
2016-12-07T10:37:25.206Z,190
2016-12-07T10:38:25.947Z,180
2016-12-07T10:39:26.714Z,170
2016-12-07T10:40:27.343Z,160
2016-12-07T10:41:28.027Z,155
2016-12-07T10:42:28.674Z,155
2016-12-07T10:43:29.341Z,155
2016-12-07T10:44:30.078Z,160
2016-12-07T10:45:30.742Z,160
2016-12-07T10:46:31.449Z,165
2016-12-07T10:47:32.105Z,175
2016-12-07T10:48:32.760Z,180
2016-12-07T10:49:33.462Z,180
2016-12-07T10:50:34.104Z,175
2016-12-07T10:51:34.734Z,170
2016-12-07T10:52:35.351Z,165
2016-12-07T10:53:35.983Z,155
2016-12-07T10:54:36.624Z,150
2016-12-07T10:55:37.288Z,155
2016-12-07T10:56:37.931Z,160
2016-12-07T10:57:38.582Z,160
2016-12-07T10:58:39.259Z,165
2016-12-07T10:59:39.895Z,175
2016-12-07T11:00:40.548Z,175
2016-12-07T11:01:41.182Z,175
2016-12-07T11:02:41.866Z,175
2016-12-07T11:03:42.496Z,175
2016-12-07T11:04:43.220Z,175
2016-12-07T11:05:43.933Z,170
2016-12-07T11:06:44.616Z,170
2016-12-07T11:07:45.298Z,165
2016-12-07T11:08:45.957Z,165
2016-12-07T11:09:46.619Z,165
2016-12-07T11:10:47.244Z,170
2016-12-07T11:11:47.878Z,170
2016-12-07T11:12:48.552Z,170
2016-12-07T11:13:49.222Z,170
2016-12-07T11:14:49.877Z,165
2016-12-07T11:15:50.518Z,165
2016-12-07T11:16:51.131Z,160
2016-12-07T11:17:51.752Z,160
2016-12-07T11:18:52.378Z,165
2016-12-07T11:19:53.025Z,170
2016-12-07T11:20:53.776Z,175
2016-12-07T11:21:54.375Z,175
2016-12-07T11:22:55.057Z,175
2016-12-07T11:23:55.721Z,175
2016-12-07T11:24:56.342Z,175
2016-12-07T11:25:56.990Z,175
2016-12-07T11:26:57.604Z,180
2016-12-07T11:27:58.232Z,180
2016-12-07T11:28:58.865Z,180
2016-12-07T11:29:59.486Z,175
2016-12-07T11:31:00.123Z,175
2016-12-07T11:32:00.748Z,175
2016-12-07T11:33:01.369Z,170
2016-12-07T11:34:02.006Z,170
2016-12-07T11:35:02.646Z,170
2016-12-07T11:36:03.281Z,165
2016-12-07T11:37:03.909Z,165
2016-12-07T11:38:04.549Z,165
2016-12-07T11:39:05.193Z,165
2016-12-07T11:40:05.830Z,165
2016-12-07T11:41:06.448Z,165
2016-12-07T11:42:07.112Z,170
2016-12-07T11:43:07.746Z,170
2016-12-07T11:44:08.378Z,175
2016-12-07T11:45:09.018Z,175
2016-12-07T11:46:09.700Z,175
2016-12-07T11:47:10.336Z,175
2016-12-07T11:48:10.979Z,175
2016-12-07T11:49:11.610Z,175
2016-12-07T11:50:12.231Z,175
2016-12-07T11:51:12.869Z,170
2016-12-07T11:52:13.488Z,165
2016-12-07T11:53:14.124Z,165
2016-12-07T11:54:14.735Z,160
2016-12-07T11:55:15.356Z,160
2016-12-07T11:56:16.015Z,160
2016-12-07T11:57:16.714Z,160
2016-12-07T11:58:17.380Z,160
2016-12-07T11:59:18.022Z,160
2016-12-07T12:00:18.648Z,165
2016-12-07T12:01:19.279Z,165
2016-12-07T12:02:19.937Z,170
2016-12-07T12:03:20.583Z,175
2016-12-07T12:04:21.221Z,175
2016-12-07T12:05:21.855Z,175
2016-12-07T12:06:22.481Z,175
2016-12-07T12:07:23.101Z,180
2016-12-07T12:08:23.748Z,185
2016-12-07T12:09:24.398Z,185
2016-12-07T12:10:25.039Z,180
2016-12-07T12:11:25.749Z,180
2016-12-07T12:12:26.357Z,175
2016-12-07T12:13:26.984Z,170
2016-12-07T12:14:27.607Z,165
2016-12-07T12:15:28.229Z,155
2016-12-07T12:16:28.846Z,150
2016-12-07T12:17:29.579Z,145
2016-12-07T12:18:30.224Z,140
2016-12-07T12:19:30.885Z,140
2016-12-07T12:20:31.528Z,135
2016-12-07T12:21:32.178Z,135
2016-12-07T12:22:32.833Z,135
2016-12-07T12:23:33.467Z,130
2016-12-07T12:24:34.108Z,130
2016-12-07T12:25:34.752Z,130
2016-12-07T12:26:35.407Z,125
2016-12-07T12:27:36.040Z,125
2016-12-07T12:28:36.703Z,120
2016-12-07T12:29:37.352Z,120
2016-12-07T12:30:38.006Z,125
2016-12-07T12:31:38.617Z,125
2016-12-07T12:32:39.296Z,125
2016-12-07T12:33:39.922Z,125
2016-12-07T12:34:40.563Z,125
2016-12-07T12:35:41.186Z,125
2016-12-07T12:36:41.839Z,125
2016-12-07T12:37:42.512Z,125
2016-12-07T12:38:43.157Z,125
2016-12-07T12:39:43.782Z,120
2016-12-07T12:40:44.417Z,120
2016-12-07T12:41:45.077Z,120
2016-12-07T12:42:45.815Z,120
2016-12-07T12:43:46.482Z,125
2016-12-07T12:44:47.170Z,125
2016-12-07T12:45:47.793Z,125
2016-12-07T12:46:48.448Z,125
2016-12-07T12:47:49.105Z,125
2016-12-07T12:48:49.747Z,120
2016-12-07T12:49:50.388Z,120
2016-12-07T12:50:51.022Z,115
2016-12-07T12:51:51.866Z,105
2016-12-07T12:52:52.492Z,95
2016-12-07T12:53:53.129Z,90
2016-12-07T12:54:53.801Z,90
2016-12-07T12:55:54.507Z,90
2016-12-07T12:56:55.183Z,90
2016-12-07T12:57:55.823Z,85
2016-12-07T12:58:56.504Z,80
2016-12-07T12:59:57.163Z,80
2016-12-07T13:00:57.813Z,75
2016-12-07T13:01:58.451Z,75
2016-12-07T13:02:59.089Z,70
2016-12-07T13:03:59.754Z,70
2016-12-07T13:05:00.401Z,70
2016-12-07T13:06:01.043Z,75
2016-12-07T13:07:01.723Z,80
2016-12-07T13:08:02.363Z,85
2016-12-07T13:09:03.011Z,85
2016-12-07T13:10:03.645Z,85
2016-12-07T13:11:04.305Z,80
2016-12-07T13:12:04.944Z,75
2016-12-07T13:13:05.597Z,75
2016-12-07T13:14:06.233Z,75
2016-12-07T13:15:06.896Z,70
2016-12-07T13:16:07.531Z,70
2016-12-07T13:17:08.247Z,70
2016-12-07T13:18:08.883Z,70
2016-12-07T13:19:09.519Z,70
2016-12-07T13:20:10.166Z,70
2016-12-07T13:21:10.795Z,70
2016-12-07T13:22:11.427Z,75
2016-12-07T13:23:12.073Z,75
2016-12-07T13:24:12.707Z,75
2016-12-07T13:25:13.364Z,80
2016-12-07T13:26:14.023Z,80
2016-12-07T13:27:14.659Z,80
2016-12-07T13:28:15.298Z,85
2016-12-07T13:29:15.951Z,85
2016-12-07T13:30:16.587Z,85
2016-12-07T13:31:17.242Z,80
2016-12-07T13:32:17.908Z,80
2016-12-07T13:33:18.583Z,80
2016-12-07T13:34:19.216Z,80
2016-12-07T13:35:19.897Z,80
2016-12-07T13:36:20.532Z,80
2016-12-07T13:37:21.162Z,75
2016-12-07T13:38:21.822Z,75
2016-12-07T13:39:22.462Z,75
2016-12-07T13:40:23.094Z,75
2016-12-07T13:41:23.730Z,70
2016-12-07T13:42:24.407Z,70
2016-12-07T13:43:25.049Z,65
2016-12-07T13:44:25.669Z,60
2016-12-07T13:45:26.296Z,60
2016-12-07T13:46:26.913Z,55
2016-12-07T13:47:27.540Z,50
2016-12-07T13:48:28.160Z,50
2016-12-07T13:49:28.779Z,50
2016-12-07T13:50:29.392Z,50
2016-12-07T13:51:30.020Z,45
2016-12-07T13:52:30.710Z,45
2016-12-07T13:53:31.332Z,45
2016-12-07T13:54:31.954Z,45
2016-12-07T13:55:32.792Z,40
2016-12-07T13:56:33.417Z,40
2016-12-07T13:57:34.049Z,35
2016-12-07T13:58:34.676Z,40
2016-12-07T13:59:35.327Z,40
2016-12-07T14:00:35.993Z,40
2016-12-07T14:01:36.622Z,45
2016-12-07T14:02:37.329Z,45
2016-12-07T14:03:37.994Z,45
2016-12-07T14:04:38.674Z,45
2016-12-07T14:05:39.305Z,45
2016-12-07T14:06:39.973Z,45
2016-12-07T14:07:40.635Z,40
2016-12-07T14:08:41.307Z,40
2016-12-07T14:09:41.996Z,40
2016-12-07T14:10:42.663Z,40
2016-12-07T14:11:43.299Z,40
2016-12-07T14:12:43.957Z,40
2016-12-07T14:13:44.581Z,40
2016-12-07T14:14:45.248Z,35
2016-12-07T14:15:45.868Z,35
2016-12-07T14:16:46.506Z,35
2016-12-07T14:17:47.170Z,35
2016-12-07T14:18:47.801Z,30
2016-12-07T14:19:48.414Z,30
2016-12-07T14:20:49.118Z,30
2016-12-07T14:21:49.742Z,30
2016-12-07T14:22:50.417Z,25
2016-12-07T14:23:51.091Z,25
2016-12-07T14:24:51.727Z,25
2016-12-07T14:25:52.372Z,25
2016-12-07T14:26:53.018Z,25
2016-12-07T14:27:53.688Z,25
2016-12-07T14:28:54.345Z,20
2016-12-07T14:29:54.985Z,20
2016-12-07T14:30:55.654Z,20
2016-12-07T14:31:56.348Z,20
2016-12-07T14:32:56.978Z,20